Matthews, Georgia
Current Conditions -  °F | °C
As of 12:53 PM on Friday 24 Oct 2014 (Local Time) from KAGS Reporting Station
Clear Clear  
Wind Chill: 70°   Ceiling: Unl
Heat Index: 70°   Visibility: 10mi
Dew Point: 45°   Wind: 0mph
Humidity: 41%   Direction: NA
Pressure: 30.06"   Gusts: NA
Location:  33.25°N, 82.32°W
Report Text: KAGS 241653Z 00000KT 10SM CLR 21/07 A3006 RMK AO2 SLP177 T02110072
Loading
Personal Weather Stations






























Interactive Weather Map
Tropical Storm Tracking
New forecast layout! Learn more

10-Day Weather Forecast

Advertisements
Track Severe Weather on mobile